createdAt,value
2022-09-29T00:01:52.871Z,99510.03
2022-09-29T00:04:19.887Z,99497.78
2022-09-29T00:06:46.214Z,99502.06
2022-09-29T00:09:12.576Z,99503.50
2022-09-29T00:11:38.919Z,99502.75
2022-09-29T00:14:05.230Z,99497.75
2022-09-29T00:16:31.604Z,99504.22
2022-09-29T00:18:58.009Z,99500.50
2022-09-29T00:21:24.334Z,99496.97
2022-09-29T00:23:50.652Z,99506.38
2022-09-29T00:26:18.300Z,99502.75
2022-09-29T00:28:48.802Z,99504.88
2022-09-29T00:31:15.207Z,99500.50
2022-09-29T00:33:41.567Z,99509.19
2022-09-29T00:36:09.659Z,99503.44
2022-09-29T00:38:35.986Z,99505.53
2022-09-29T00:41:02.453Z,99507.72
2022-09-29T00:43:47.847Z,99507.72
2022-09-29T00:46:14.920Z,99494.75
2022-09-29T00:48:41.283Z,99504.06
2022-09-29T00:51:07.602Z,99506.19
2022-09-29T00:53:33.923Z,99504.81
2022-09-29T00:56:01.530Z,99501.22
2022-09-29T00:58:37.856Z,99506.97
2022-09-29T01:01:04.377Z,99499.06
2022-09-29T01:03:31.697Z,99504.06
2022-09-29T01:05:58.710Z,99504.06
2022-09-29T01:08:24.950Z,99512.63
2022-09-29T01:10:51.302Z,99511.22
2022-09-29T01:13:18.627Z,99511.91
2022-09-29T01:15:44.947Z,99518.38
2022-09-29T01:18:11.271Z,99521.94
2022-09-29T01:20:40.104Z,99522.69
2022-09-29T01:23:21.214Z,99527.69
2022-09-29T01:26:06.270Z,99526.22
2022-09-29T01:28:41.313Z,99531.25
2022-09-29T01:31:16.200Z,99537.00
2022-09-29T01:33:58.422Z,99528.31
2022-09-29T01:36:30.898Z,99535.53
2022-09-29T01:39:15.839Z,99527.59
2022-09-29T01:41:51.794Z,99545.56
2022-09-29T01:44:29.043Z,99539.81
2022-09-29T01:47:02.467Z,99540.50
2022-09-29T01:49:29.479Z,99536.88
2022-09-29T01:52:08.139Z,99536.88
2022-09-29T01:54:43.694Z,99544.06
2022-09-29T01:57:10.946Z,99538.31
2022-09-29T01:59:40.375Z,99547.66
2022-09-29T02:02:08.860Z,99552.69
2022-09-29T02:04:53.998Z,99554.06
2022-09-29T02:07:27.816Z,99553.34
2022-09-29T02:09:56.743Z,99554.06
2022-09-29T02:12:23.843Z,99555.50
2022-09-29T02:14:51.006Z,99548.31
2022-09-29T02:17:19.844Z,99553.28
2022-09-29T02:19:47.441Z,99559.78
2022-09-29T02:22:13.790Z,99556.94
2022-09-29T02:24:40.173Z,99566.28
2022-09-29T02:27:06.498Z,99559.75
2022-09-29T02:29:33.281Z,99552.56
2022-09-29T02:32:01.834Z,99558.31
2022-09-29T02:34:28.212Z,99568.38
2022-09-29T02:37:13.218Z,99566.88
2022-09-29T02:39:42.409Z,99566.94
2022-09-29T02:42:12.832Z,99571.28
2022-09-29T02:44:42.598Z,99568.44
2022-09-29T02:47:14.935Z,99568.41
2022-09-29T02:49:46.615Z,99566.31
2022-09-29T02:52:27.155Z,99576.41
2022-09-29T02:55:07.798Z,99567.09
2022-09-29T02:57:37.338Z,99574.31
2022-09-29T03:00:11.213Z,99575.03
2022-09-29T03:02:37.974Z,99574.31
2022-09-29T03:05:05.098Z,99575.78
2022-09-29T03:07:31.486Z,99572.16
2022-09-29T03:09:57.803Z,99572.16
2022-09-29T03:12:24.148Z,99570.03
2022-09-29T03:14:50.471Z,99568.56
2022-09-29T03:17:16.789Z,99574.41
2022-09-29T03:19:43.115Z,99573.69
2022-09-29T03:22:09.441Z,99575.19
2022-09-29T03:24:36.128Z,99579.56
2022-09-29T03:27:02.450Z,99574.53
2022-09-29T03:29:29.135Z,99581.72
2022-09-29T03:31:55.588Z,99575.94
2022-09-29T03:34:22.001Z,99587.44
2022-09-29T03:36:48.338Z,99573.06
2022-09-29T03:39:14.674Z,99587.44
2022-09-29T03:41:41.201Z,99578.81
2022-09-29T03:44:07.564Z,99580.22
2022-09-29T03:46:33.890Z,99584.56
2022-09-29T03:49:00.221Z,99588.91
2022-09-29T03:51:26.602Z,99591.06
2022-09-29T03:53:53.769Z,99584.56
2022-09-29T03:56:20.145Z,99585.31
2022-09-29T03:58:46.498Z,99593.22
2022-09-29T04:01:12.933Z,99593.22
2022-09-29T04:03:39.298Z,99593.22
2022-09-29T04:06:05.688Z,99594.72
2022-09-29T04:08:32.019Z,99602.59
2022-09-29T04:10:58.336Z,99605.47
2022-09-29T04:13:24.685Z,99604.72
2022-09-29T04:15:51.001Z,99605.44
2022-09-29T04:18:17.427Z,99603.28
2022-09-29T04:20:43.762Z,99603.28
2022-09-29T04:23:10.101Z,99609.75
2022-09-29T04:25:36.423Z,99601.81
2022-09-29T04:28:02.741Z,99603.28
2022-09-29T04:30:29.046Z,99609.03
2022-09-29T04:32:55.366Z,99619.09
2022-09-29T04:35:21.684Z,99609.03
2022-09-29T04:37:47.985Z,99612.63
2022-09-29T04:40:14.397Z,99611.19
2022-09-29T04:42:40.809Z,99609.09
2022-09-29T04:45:07.212Z,99617.00
2022-09-29T04:47:33.532Z,99619.88
2022-09-29T04:49:59.840Z,99613.41
2022-09-29T04:52:26.153Z,99613.47
2022-09-29T04:54:52.469Z,99633.53
2022-09-29T04:57:18.792Z,99627.13
2022-09-29T04:59:45.123Z,99636.63
2022-09-29T05:02:11.487Z,99624.31
2022-09-29T05:04:37.874Z,99629.72
2022-09-29T05:07:04.230Z,99621.16
2022-09-29T05:09:33.564Z,99632.16
2022-09-29T05:12:00.287Z,99637.94
2022-09-29T05:14:26.597Z,99633.59
2022-09-29T05:16:54.397Z,99639.34
2022-09-29T05:19:20.882Z,99640.78
2022-09-29T05:21:47.321Z,99643.84
2022-09-29T05:24:13.628Z,99644.56
2022-09-29T05:26:39.951Z,99648.38
2022-09-29T05:29:06.278Z,99644.75
2022-09-29T05:31:32.628Z,99643.53
2022-09-29T05:33:58.953Z,99643.84
2022-09-29T05:36:25.351Z,99650.25
2022-09-29T05:38:51.974Z,99642.28
2022-09-29T05:41:22.479Z,99641.34
2022-09-29T05:43:49.186Z,99648.13
2022-09-29T05:46:16.804Z,99650.09
2022-09-29T05:48:46.373Z,99646.44
2022-09-29T05:51:14.327Z,99650.88
2022-09-29T05:53:50.949Z,99653.03
2022-09-29T05:56:24.727Z,99655.91
2022-09-29T05:58:51.039Z,99647.91
2022-09-29T06:01:18.236Z,99656.28
2022-09-29T06:03:44.575Z,99656.00
2022-09-29T06:06:11.497Z,99656.22
2022-09-29T06:08:37.924Z,99662.03
2022-09-29T06:11:11.195Z,99662.22
2022-09-29T06:13:38.190Z,99660.66
2022-09-29T06:16:04.589Z,99653.66
2022-09-29T06:18:30.988Z,99662.34
2022-09-29T06:21:01.282Z,99668.22
2022-09-29T06:23:27.590Z,99666.75
2022-09-29T06:26:02.010Z,99662.59
2022-09-29T06:28:28.720Z,99670.50
2022-09-29T06:31:05.042Z,99676.13
2022-09-29T06:33:31.504Z,99671.53
2022-09-29T06:36:16.286Z,99671.84
2022-09-29T06:38:42.626Z,99663.06
2022-09-29T06:41:08.979Z,99666.75
2022-09-29T06:43:35.409Z,99664.44
2022-09-29T06:46:01.894Z,99675.78
2022-09-29T06:48:29.792Z,99675.69
2022-09-29T06:51:07.697Z,99669.41
2022-09-29T06:53:38.601Z,99671.78
2022-09-29T06:56:05.547Z,99666.09
2022-09-29T06:58:31.903Z,99668.97
2022-09-29T07:01:01.995Z,99679.88
2022-09-29T07:03:31.198Z,99681.25
2022-09-29T07:06:18.310Z,99671.19
2022-09-29T07:08:43.896Z,99682.63
2022-09-29T07:11:10.374Z,99687.72
2022-09-29T07:13:36.773Z,99689.16
2022-09-29T07:16:09.560Z,99688.47
2022-09-29T07:18:37.612Z,99692.41
2022-09-29T07:21:10.710Z,99696.69
2022-09-29T07:23:37.135Z,99692.72
2022-09-29T07:26:03.874Z,99693.16
2022-09-29T07:28:30.322Z,99706.75
2022-09-29T07:31:13.541Z,99705.28
2022-09-29T07:33:41.856Z,99704.56
2022-09-29T07:36:08.348Z,99716.13
2022-09-29T07:38:34.701Z,99712.53
2022-09-29T07:41:02.392Z,99711.75
2022-09-29T07:43:29.386Z,99716.78
2022-09-29T07:45:56.201Z,99718.22
2022-09-29T07:48:22.878Z,99715.34
2022-09-29T07:50:49.207Z,99719.63
2022-09-29T07:53:15.513Z,99729.66
2022-09-29T07:55:41.889Z,99729.66
2022-09-29T07:58:08.741Z,99728.94
2022-09-29T08:00:35.073Z,99728.94
2022-09-29T08:03:04.811Z,99735.44
2022-09-29T08:05:33.487Z,99731.84
2022-09-29T08:08:04.109Z,99735.44
2022-09-29T08:10:31.030Z,99742.63
2022-09-29T08:12:57.460Z,99736.88
2022-09-29T08:15:23.782Z,99737.59
2022-09-29T08:17:52.474Z,99740.47
2022-09-29T08:20:18.907Z,99736.16
2022-09-29T08:22:45.228Z,99740.47
2022-09-29T08:25:11.539Z,99746.22
2022-09-29T08:27:48.291Z,99754.84
2022-09-29T08:30:19.038Z,99748.34
2022-09-29T08:32:50.893Z,99748.34
2022-09-29T08:35:17.214Z,99751.97
2022-09-29T08:37:43.530Z,99761.25
2022-09-29T08:40:10.114Z,99761.25
2022-09-29T08:42:55.321Z,99762.00
2022-09-29T08:45:24.662Z,99771.28
2022-09-29T08:47:51.051Z,99759.78
2022-09-29T08:50:22.782Z,99759.06
2022-09-29T08:52:52.788Z,99771.28
2022-09-29T08:55:21.891Z,99766.97
2022-09-29T08:57:48.741Z,99769.84
2022-09-29T09:00:15.978Z,99759.78
2022-09-29T09:02:45.079Z,99767.69
2022-09-29T09:05:26.732Z,99769.84
2022-09-29T09:08:15.372Z,99774.13
2022-09-29T09:10:48.215Z,99773.38
2022-09-29T09:13:19.819Z,99784.91
2022-09-29T09:15:49.009Z,99782.00
2022-09-29T09:18:28.843Z,99781.28
2022-09-29T09:21:03.992Z,99780.56
2022-09-29T09:23:42.879Z,99783.44
2022-09-29T09:26:09.215Z,99781.97
2022-09-29T09:28:55.720Z,99788.47
2022-09-29T09:31:25.153Z,99786.25
2022-09-29T09:34:05.669Z,99783.38
2022-09-29T09:36:36.631Z,99796.31
2022-09-29T09:39:05.008Z,99794.16
2022-09-29T09:41:35.781Z,99797.03
2022-09-29T09:44:18.903Z,99797.72
2022-09-29T09:46:52.758Z,99786.94
2022-09-29T09:49:32.751Z,99793.38
2022-09-29T09:52:08.203Z,99796.97
2022-09-29T09:54:35.370Z,99792.63
2022-09-29T09:57:11.763Z,99791.91
2022-09-29T09:59:47.965Z,99795.41
2022-09-29T10:02:21.026Z,99800.53
2022-09-29T10:04:52.149Z,99792.63
2022-09-29T10:07:23.181Z,99805.56
2022-09-29T10:09:49.612Z,99805.56
2022-09-29T10:12:16.386Z,99805.56
2022-09-29T10:14:45.104Z,99802.69
2022-09-29T10:17:12.351Z,99814.19
2022-09-29T10:19:57.482Z,99805.50
2022-09-29T10:22:24.203Z,99811.25
2022-09-29T10:25:05.615Z,99811.25
2022-09-29T10:27:31.947Z,99808.38
2022-09-29T10:29:59.496Z,99809.78
2022-09-29T10:32:36.203Z,99817.00
2022-09-29T10:35:06.962Z,99822.03
2022-09-29T10:37:39.099Z,99822.75
2022-09-29T10:40:08.362Z,99815.53
2022-09-29T10:42:34.967Z,99818.41
2022-09-29T10:45:02.195Z,99829.94
2022-09-29T10:47:28.529Z,99828.44
2022-09-29T10:50:07.777Z,99826.28
2022-09-29T10:52:34.111Z,99820.53
2022-09-29T10:55:00.782Z,99844.31
2022-09-29T10:57:27.626Z,99832.81
2022-09-29T10:59:54.276Z,99827.09
2022-09-29T11:02:25.319Z,99826.41
2022-09-29T11:04:52.079Z,99837.81
2022-09-29T11:07:18.432Z,99827.03
2022-09-29T11:09:44.808Z,99829.22
2022-09-29T11:12:29.779Z,99830.00
2022-09-29T11:14:56.144Z,99842.94
2022-09-29T11:17:29.203Z,99835.03
2022-09-29T11:19:56.297Z,99834.38
2022-09-29T11:22:41.185Z,99839.47
2022-09-29T11:25:13.910Z,99848.81
2022-09-29T11:27:55.721Z,99854.53
2022-09-29T11:30:25.805Z,99853.84
2022-09-29T11:33:05.039Z,99852.50
2022-09-29T11:35:31.354Z,99851.13
2022-09-29T11:38:01.056Z,99852.50
2022-09-29T11:40:30.033Z,99848.13
2022-09-29T11:43:05.651Z,99853.28
2022-09-29T11:45:35.065Z,99844.69
2022-09-29T11:48:27.252Z,99845.66
2022-09-29T11:51:00.273Z,99840.81
2022-09-29T11:53:46.007Z,99846.13
2022-09-29T11:56:22.997Z,99844.69
2022-09-29T11:58:56.106Z,99839.41
2022-09-29T12:01:37.286Z,99837.75
2022-09-29T12:04:22.471Z,99842.81
2022-09-29T12:06:55.596Z,99850.00
2022-09-29T12:09:24.931Z,99848.69
2022-09-29T12:12:22.510Z,99853.38
2022-09-29T12:14:53.170Z,99848.16
2022-09-29T12:17:19.758Z,99850.59
2022-09-29T12:19:56.161Z,99854.47
2022-09-29T12:22:22.508Z,99853.22
2022-09-29T12:24:51.540Z,99848.94
2022-09-29T12:27:19.179Z,99845.47
2022-09-29T12:29:50.757Z,99862.66
2022-09-29T12:32:28.500Z,99848.88
2022-09-29T12:34:59.428Z,99851.44
2022-09-29T12:37:46.784Z,99845.78
2022-09-29T12:40:36.053Z,99850.16
2022-09-29T12:43:13.073Z,99845.97
2022-09-29T12:45:46.318Z,99846.94
2022-09-29T12:48:17.511Z,99851.59
2022-09-29T12:50:50.355Z,99857.94
2022-09-29T12:53:28.931Z,99853.53
2022-09-29T12:55:58.570Z,99854.16
2022-09-29T12:58:28.597Z,99859.41
2022-09-29T13:00:57.460Z,99850.50
2022-09-29T13:03:34.018Z,99858.38
2022-09-29T13:06:06.221Z,99858.31
2022-09-29T13:08:32.547Z,99858.88
2022-09-29T13:11:04.989Z,99861.56
2022-09-29T13:13:49.984Z,99862.13
2022-09-29T13:16:18.450Z,99864.97
2022-09-29T13:18:59.879Z,99867.84
2022-09-29T13:21:44.665Z,99865.00
2022-09-29T13:24:15.064Z,99868.69
2022-09-29T13:27:00.379Z,99862.88
2022-09-29T13:29:26.733Z,99874.25
2022-09-29T13:32:37.559Z,99871.91
2022-09-29T13:35:03.938Z,99870.28
2022-09-29T13:37:35.199Z,99865.94
2022-09-29T13:40:10.657Z,99867.88
2022-09-29T13:42:39.261Z,99871.50
2022-09-29T13:45:15.237Z,99871.44
2022-09-29T13:47:45.574Z,99873.44
2022-09-29T13:50:30.600Z,99871.44
2022-09-29T13:53:14.999Z,99874.38
2022-09-29T13:55:57.131Z,99868.88
2022-09-29T13:58:26.940Z,99873.00
2022-09-29T14:00:53.657Z,99878.78
2022-09-29T14:03:32.814Z,99880.19
2022-09-29T14:06:28.907Z,99882.44
2022-09-29T14:09:12.389Z,99887.88
2022-09-29T14:11:40.111Z,99886.53
2022-09-29T14:14:14.613Z,99889.97
2022-09-29T14:16:45.603Z,99883.22
2022-09-29T14:19:31.046Z,99893.34
2022-09-29T14:21:58.041Z,99888.19
2022-09-29T14:24:42.429Z,99903.06
2022-09-29T14:27:32.136Z,99903.56
2022-09-29T14:30:03.965Z,99908.88
2022-09-29T14:32:35.758Z,99910.97
2022-09-29T14:35:02.107Z,99907.63
2022-09-29T14:37:28.424Z,99907.53
2022-09-29T14:40:13.267Z,99911.41
2022-09-29T14:42:39.620Z,99909.75
2022-09-29T14:45:25.122Z,99910.19
2022-09-29T14:48:12.915Z,99911.44
2022-09-29T14:51:02.298Z,99911.50
2022-09-29T14:53:34.743Z,99920.16
2022-09-29T14:56:08.103Z,99921.09
2022-09-29T14:58:37.679Z,99926.94
2022-09-29T15:01:22.863Z,99921.88
2022-09-29T15:03:50.141Z,99918.75
2022-09-29T15:06:20.198Z,99917.22
2022-09-29T15:09:02.071Z,99923.59
2022-09-29T15:11:38.172Z,99919.09
2022-09-29T15:14:17.941Z,99927.09
2022-09-29T15:16:54.785Z,99925.03
2022-09-29T15:19:29.191Z,99925.88
2022-09-29T15:21:57.997Z,99929.47
2022-09-29T15:24:28.337Z,99925.03
2022-09-29T15:26:54.923Z,99929.31
2022-09-29T15:29:21.598Z,99926.47
2022-09-29T15:31:49.959Z,99931.41
2022-09-29T15:34:19.881Z,99943.78
2022-09-29T15:36:46.916Z,99943.38
2022-09-29T15:39:29.169Z,99935.56
2022-09-29T15:42:02.231Z,99937.25
2022-09-29T15:44:28.669Z,99940.97
2022-09-29T15:46:58.123Z,99943.84
2022-09-29T15:49:25.353Z,99953.81
2022-09-29T15:52:01.313Z,99945.25
2022-09-29T15:54:34.743Z,99956.59
2022-09-29T15:57:20.411Z,99950.28
2022-09-29T15:59:51.598Z,99959.50
2022-09-29T16:02:30.577Z,99963.34
2022-09-29T16:05:04.267Z,99961.19
2022-09-29T16:07:31.395Z,99959.03
2022-09-29T16:10:18.255Z,99966.16
2022-09-29T16:12:48.324Z,99958.91
2022-09-29T16:15:20.881Z,99961.84
2022-09-29T16:17:48.708Z,99958.97
2022-09-29T16:20:15.683Z,99967.50
2022-09-29T16:22:42.011Z,99963.16
2022-09-29T16:25:10.002Z,99974.75
2022-09-29T16:27:40.767Z,99973.94
2022-09-29T16:30:20.428Z,99983.25
2022-09-29T16:32:46.905Z,99994.00
2022-09-29T16:35:31.931Z,99986.09
2022-09-29T16:37:58.371Z,99993.88
2022-09-29T16:40:24.862Z,99994.59
2022-09-29T16:42:52.090Z,100003.25
2022-09-29T16:45:24.221Z,100003.13
2022-09-29T16:47:50.997Z,100008.06
2022-09-29T16:50:18.886Z,100008.06
2022-09-29T16:52:49.125Z,100017.53
2022-09-29T16:55:20.946Z,100019.97
2022-09-29T16:58:12.254Z,100026.59
2022-09-29T17:00:38.744Z,100032.53
2022-09-29T17:03:06.605Z,100030.25
2022-09-29T17:05:47.785Z,100045.56
2022-09-29T17:08:15.798Z,100045.72
2022-09-29T17:10:42.254Z,100045.84
2022-09-29T17:13:10.388Z,100049.41
2022-09-29T17:15:37.490Z,100057.97
2022-09-29T17:18:03.961Z,100069.47
2022-09-29T17:20:30.835Z,100071.59
2022-09-29T17:22:59.197Z,100073.75
2022-09-29T17:25:25.621Z,100069.13
2022-09-29T17:28:10.716Z,100077.00
2022-09-29T17:30:37.250Z,100079.84
2022-09-29T17:33:03.713Z,100082.72
2022-09-29T17:35:30.783Z,100088.38
2022-09-29T17:37:57.343Z,100086.81
2022-09-29T17:40:30.949Z,100091.78
2022-09-29T17:42:59.702Z,100089.66
2022-09-29T17:45:26.030Z,100098.28
2022-09-29T17:47:52.350Z,100099.78
2022-09-29T17:50:20.790Z,100097.41
2022-09-29T17:52:47.101Z,100104.03
2022-09-29T17:55:13.625Z,100098.28
2022-09-29T17:57:42.315Z,100101.22
2022-09-29T18:00:19.283Z,100104.88
2022-09-29T18:02:45.836Z,100107.06
2022-09-29T18:05:12.193Z,100114.25
2022-09-29T18:07:38.501Z,100109.94
2022-09-29T18:10:18.579Z,100122.69
2022-09-29T18:12:44.917Z,100114.94
2022-09-29T18:15:11.293Z,100115.53
2022-09-29T18:17:37.657Z,100121.00
2022-09-29T18:20:11.615Z,100129.72
2022-09-29T18:22:38.438Z,100126.09
2022-09-29T18:25:05.126Z,100117.69
2022-09-29T18:27:31.442Z,100126.59
2022-09-29T18:29:57.776Z,100116.69
2022-09-29T18:32:24.087Z,100122.44
2022-09-29T18:34:50.404Z,100119.31
2022-09-29T18:37:16.802Z,100123.13
2022-09-29T18:39:43.105Z,100119.72
2022-09-29T18:42:09.500Z,100124.75
2022-09-29T18:44:36.659Z,100131.22
2022-09-29T18:47:02.966Z,100119.00
2022-09-29T18:49:29.285Z,100122.06
2022-09-29T18:51:55.641Z,100125.03
2022-09-29T18:54:21.962Z,100122.31
2022-09-29T18:56:53.793Z,100125.28
2022-09-29T18:59:21.110Z,100128.22
2022-09-29T19:01:47.645Z,100133.25
2022-09-29T19:04:14.102Z,100123.94
2022-09-29T19:06:40.405Z,100123.94
2022-09-29T19:09:06.747Z,100125.41
2022-09-29T19:11:33.546Z,100133.31
2022-09-29T19:13:59.883Z,100128.28
2022-09-29T19:16:28.066Z,100129.78
2022-09-29T19:18:55.402Z,100137.00
2022-09-29T19:21:21.709Z,100141.81
2022-09-29T19:23:48.128Z,100141.34
2022-09-29T19:26:15.581Z,100141.41
2022-09-29T19:28:41.893Z,100140.00
2022-09-29T19:31:10.114Z,100147.28
2022-09-29T19:33:36.515Z,100148.03
2022-09-29T19:36:07.649Z,100150.25
2022-09-29T19:38:34.218Z,100145.91
2022-09-29T19:41:00.543Z,100145.97
2022-09-29T19:43:27.032Z,100148.84
2022-09-29T19:45:53.504Z,100153.19
2022-09-29T19:48:20.579Z,100151.78
2022-09-29T19:51:05.599Z,100154.59
2022-09-29T19:53:31.962Z,100156.06
2022-09-29T19:55:58.298Z,100154.59
2022-09-29T19:58:24.621Z,100157.53
2022-09-29T20:00:55.169Z,100159.00
2022-09-29T20:03:21.493Z,100165.50
2022-09-29T20:05:47.828Z,100164.16
2022-09-29T20:08:14.147Z,100167.78
2022-09-29T20:10:41.941Z,100173.63
2022-09-29T20:13:08.535Z,100178.59
2022-09-29T20:15:34.914Z,100175.06
2022-09-29T20:18:01.253Z,100179.38
2022-09-29T20:20:27.941Z,100182.28
2022-09-29T20:22:54.264Z,100185.84
2022-09-29T20:25:21.093Z,100189.31
2022-09-29T20:27:47.423Z,100190.88
2022-09-29T20:30:13.750Z,100192.28
2022-09-29T20:32:40.060Z,100194.50
2022-09-29T20:35:06.380Z,100194.50
2022-09-29T20:37:33.106Z,100193.06
2022-09-29T20:40:00.277Z,100196.69
2022-09-29T20:42:26.657Z,100205.31
2022-09-29T20:44:55.059Z,100211.75
2022-09-29T20:47:22.225Z,100212.44
2022-09-29T20:49:48.559Z,100208.16
2022-09-29T20:52:14.882Z,100215.31
2022-09-29T20:54:41.701Z,100216.72
2022-09-29T20:57:08.704Z,100217.44
2022-09-29T20:59:36.021Z,100219.66
2022-09-29T21:02:02.477Z,100222.47
2022-09-29T21:04:28.973Z,100234.00
2022-09-29T21:06:55.312Z,100236.19
2022-09-29T21:09:22.434Z,100239.75
2022-09-29T21:11:49.219Z,100234.66
2022-09-29T21:14:18.502Z,100235.31
2022-09-29T21:16:46.318Z,100238.25
2022-09-29T21:19:12.685Z,100241.84
2022-09-29T21:21:39.124Z,100235.25
2022-09-29T21:24:05.509Z,100249.78
2022-09-29T21:26:31.828Z,100252.59
2022-09-29T21:28:59.421Z,100246.81
2022-09-29T21:31:26.907Z,100253.34
2022-09-29T21:33:54.476Z,100252.59
2022-09-29T21:36:20.804Z,100256.81
2022-09-29T21:38:47.125Z,100259.91
2022-09-29T21:41:15.748Z,100264.91
2022-09-29T21:43:44.009Z,100270.00
2022-09-29T21:46:10.752Z,100274.22
2022-09-29T21:48:37.065Z,100272.66
2022-09-29T21:51:06.224Z,100271.13
2022-09-29T21:53:32.641Z,100269.75
2022-09-29T21:55:59.649Z,100265.44
2022-09-29T21:58:25.954Z,100263.31
2022-09-29T22:00:53.857Z,100273.34
2022-09-29T22:03:20.195Z,100274.00
2022-09-29T22:05:46.574Z,100279.91
2022-09-29T22:08:13.067Z,100276.97
2022-09-29T22:10:39.408Z,100273.34
2022-09-29T22:13:05.778Z,100279.75
2022-09-29T22:15:32.569Z,100285.53
2022-09-29T22:17:59.693Z,100284.94
2022-09-29T22:20:26.496Z,100284.19
2022-09-29T22:22:52.814Z,100282.72
2022-09-29T22:25:19.167Z,100285.53
2022-09-29T22:27:45.526Z,100291.34
2022-09-29T22:30:11.888Z,100287.00
2022-09-29T22:32:38.280Z,100296.97
2022-09-29T22:35:04.833Z,100301.34
2022-09-29T22:37:31.370Z,100299.84
2022-09-29T22:39:57.735Z,100291.22
2022-09-29T22:42:24.045Z,100294.78
2022-09-29T22:44:50.416Z,100298.31
2022-09-29T22:47:16.731Z,100294.00
2022-09-29T22:49:43.050Z,100299.03
2022-09-29T22:52:09.386Z,100294.09
2022-09-29T22:54:35.698Z,100301.91
2022-09-29T22:57:02.035Z,100307.66
2022-09-29T22:59:28.371Z,100313.44
2022-09-29T23:01:54.733Z,100321.34
2022-09-29T23:04:21.216Z,100321.25
2022-09-29T23:06:47.566Z,100319.75
2022-09-29T23:09:13.952Z,100321.19
2022-09-29T23:11:41.006Z,100316.69
2022-09-29T23:14:08.010Z,100320.31
2022-09-29T23:16:34.420Z,100320.38
2022-09-29T23:19:00.770Z,100318.16
2022-09-29T23:21:27.123Z,100321.84
2022-09-29T23:23:57.096Z,100323.91
2022-09-29T23:26:23.669Z,100325.31
2022-09-29T23:28:50.114Z,100328.19
2022-09-29T23:31:16.487Z,100322.44
2022-09-29T23:33:42.846Z,100321.72
2022-09-29T23:36:09.907Z,100326.06
2022-09-29T23:38:57.968Z,100320.97
2022-09-29T23:41:26.951Z,100326.72
2022-09-29T23:43:55.493Z,100331.72
2022-09-29T23:46:22.970Z,100331.00
2022-09-29T23:48:49.535Z,100326.72
2022-09-29T23:51:15.931Z,100336.84
2022-09-29T23:53:42.244Z,100331.72
2022-09-29T23:56:08.559Z,100323.75
2022-09-29T23:58:34.891Z,100337.50
